sensor_id;sensor_type;location;lat;lon;timestamp;temperature;humidity
4279;DHT22;2153;47.744;10.580;2023-04-06T00:02:17;-3.70;99.90
4279;DHT22;2153;47.744;10.580;2023-04-06T00:04:44;-3.80;99.90
4279;DHT22;2153;47.744;10.580;2023-04-06T00:07:11;-3.70;99.90
4279;DHT22;2153;47.744;10.580;2023-04-06T00:09:37;-3.70;99.90
4279;DHT22;2153;47.744;10.580;2023-04-06T00:12:04;-3.60;99.90
4279;DHT22;2153;47.744;10.580;2023-04-06T00:14:31;-3.60;99.90
4279;DHT22;2153;47.744;10.580;2023-04-06T00:16:59;-3.70;99.90
4279;DHT22;2153;47.744;10.580;2023-04-06T00:19:26;-3.70;99.90
4279;DHT22;2153;47.744;10.580;2023-04-06T00:21:53;-3.70;99.90
4279;DHT22;2153;47.744;10.580;2023-04-06T00:24:20;-3.80;99.90
4279;DHT22;2153;47.744;10.580;2023-04-06T00:26:47;-3.70;99.90
4279;DHT22;2153;47.744;10.580;2023-04-06T00:29:13;-3.70;99.90
4279;DHT22;2153;47.744;10.580;2023-04-06T00:31:40;-3.70;99.90
4279;DHT22;2153;47.744;10.580;2023-04-06T00:34:09;-3.70;99.90
4279;DHT22;2153;47.744;10.580;2023-04-06T00:36:36;-3.80;99.90
4279;DHT22;2153;47.744;10.580;2023-04-06T00:39:02;-3.80;99.90
4279;DHT22;2153;47.744;10.580;2023-04-06T00:41:29;-3.80;99.90
4279;DHT22;2153;47.744;10.580;2023-04-06T00:43:56;-3.80;99.90
4279;DHT22;2153;47.744;10.580;2023-04-06T00:46:23;-3.70;99.90
4279;DHT22;2153;47.744;10.580;2023-04-06T00:48:50;-3.80;99.90
4279;DHT22;2153;47.744;10.580;2023-04-06T00:51:18;-3.70;99.90
4279;DHT22;2153;47.744;10.580;2023-04-06T00:53:45;-3.70;99.90
4279;DHT22;2153;47.744;10.580;2023-04-06T00:56:12;-3.60;99.90
4279;DHT22;2153;47.744;10.580;2023-04-06T00:58:38;-3.60;99.90
4279;DHT22;2153;47.744;10.580;2023-04-06T01:01:06;-3.70;99.90
4279;DHT22;2153;47.744;10.580;2023-04-06T01:03:32;-3.70;99.90
4279;DHT22;2153;47.744;10.580;2023-04-06T01:05:59;-3.70;99.90
4279;DHT22;2153;47.744;10.580;2023-04-06T01:08:27;-3.80;99.90
4279;DHT22;2153;47.744;10.580;2023-04-06T01:10:54;-3.80;99.90
4279;DHT22;2153;47.744;10.580;2023-04-06T01:13:21;-3.90;99.90
4279;DHT22;2153;47.744;10.580;2023-04-06T01:15:48;-3.90;99.90
4279;DHT22;2153;47.744;10.580;2023-04-06T01:18:15;-3.80;99.90
4279;DHT22;2153;47.744;10.580;2023-04-06T01:20:42;-3.80;99.90
4279;DHT22;2153;47.744;10.580;2023-04-06T01:23:10;-3.70;99.90
4279;DHT22;2153;47.744;10.580;2023-04-06T01:25:37;-3.70;99.90
4279;DHT22;2153;47.744;10.580;2023-04-06T01:28:04;-3.70;99.90
4279;DHT22;2153;47.744;10.580;2023-04-06T01:30:30;-3.70;99.90
4279;DHT22;2153;47.744;10.580;2023-04-06T01:32:57;-3.70;99.90
4279;DHT22;2153;47.744;10.580;2023-04-06T01:35:27;-3.60;99.90
4279;DHT22;2153;47.744;10.580;2023-04-06T01:37:54;-3.60;99.90
4279;DHT22;2153;47.744;10.580;2023-04-06T01:40:22;-3.60;99.90
4279;DHT22;2153;47.744;10.580;2023-04-06T01:42:49;-3.60;99.90
4279;DHT22;2153;47.744;10.580;2023-04-06T01:45:15;-3.60;99.90
4279;DHT22;2153;47.744;10.580;2023-04-06T01:47:42;-3.50;99.90
4279;DHT22;2153;47.744;10.580;2023-04-06T01:50:09;-3.50;99.90
4279;DHT22;2153;47.744;10.580;2023-04-06T01:52:37;-3.50;99.90
4279;DHT22;2153;47.744;10.580;2023-04-06T01:55:04;-3.40;99.90
4279;DHT22;2153;47.744;10.580;2023-04-06T01:57:32;-3.30;99.90
4279;DHT22;2153;47.744;10.580;2023-04-06T02:00:00;-3.30;99.90
4279;DHT22;2153;47.744;10.580;2023-04-06T02:02:27;-3.30;99.90
4279;DHT22;2153;47.744;10.580;2023-04-06T02:04:53;-3.20;99.90
4279;DHT22;2153;47.744;10.580;2023-04-06T02:07:20;-3.20;99.90
4279;DHT22;2153;47.744;10.580;2023-04-06T02:09:47;-3.20;99.90
4279;DHT22;2153;47.744;10.580;2023-04-06T02:12:14;-3.20;99.90
4279;DHT22;2153;47.744;10.580;2023-04-06T02:14:42;-3.20;99.90
4279;DHT22;2153;47.744;10.580;2023-04-06T02:17:09;-3.20;99.90
4279;DHT22;2153;47.744;10.580;2023-04-06T02:19:35;-3.20;99.90
4279;DHT22;2153;47.744;10.580;2023-04-06T02:22:02;-3.10;99.90
4279;DHT22;2153;47.744;10.580;2023-04-06T02:24:29;-3.10;99.90
4279;DHT22;2153;47.744;10.580;2023-04-06T02:26:55;-3.10;99.90
4279;DHT22;2153;47.744;10.580;2023-04-06T02:29:22;-3.10;99.90
4279;DHT22;2153;47.744;10.580;2023-04-06T02:31:50;-3.10;99.90
4279;DHT22;2153;47.744;10.580;2023-04-06T02:34:17;-3.20;99.90
4279;DHT22;2153;47.744;10.580;2023-04-06T02:36:45;-3.10;99.90
4279;DHT22;2153;47.744;10.580;2023-04-06T02:39:12;-3.10;99.90
4279;DHT22;2153;47.744;10.580;2023-04-06T02:41:38;-3.10;99.90
4279;DHT22;2153;47.744;10.580;2023-04-06T02:44:08;-3.10;99.90
4279;DHT22;2153;47.744;10.580;2023-04-06T02:46:35;-3.10;99.90
4279;DHT22;2153;47.744;10.580;2023-04-06T02:49:03;-3.10;99.90
4279;DHT22;2153;47.744;10.580;2023-04-06T02:51:30;-3.10;99.90
4279;DHT22;2153;47.744;10.580;2023-04-06T02:53:56;-3.10;99.90
4279;DHT22;2153;47.744;10.580;2023-04-06T02:56:23;-3.10;99.90
4279;DHT22;2153;47.744;10.580;2023-04-06T02:58:50;-3.10;99.90
4279;DHT22;2153;47.744;10.580;2023-04-06T03:01:17;-3.20;99.90
4279;DHT22;2153;47.744;10.580;2023-04-06T03:03:43;-3.20;99.90
4279;DHT22;2153;47.744;10.580;2023-04-06T03:06:11;-3.10;99.90
4279;DHT22;2153;47.744;10.580;2023-04-06T03:08:38;-3.10;99.90
4279;DHT22;2153;47.744;10.580;2023-04-06T03:11:05;-3.10;99.90
4279;DHT22;2153;47.744;10.580;2023-04-06T03:13:31;-3.10;99.90
4279;DHT22;2153;47.744;10.580;2023-04-06T03:15:58;-3.10;99.90
4279;DHT22;2153;47.744;10.580;2023-04-06T03:18:25;-3.10;99.90
4279;DHT22;2153;47.744;10.580;2023-04-06T03:20:52;-3.10;99.90
4279;DHT22;2153;47.744;10.580;2023-04-06T03:23:21;-3.10;99.90
4279;DHT22;2153;47.744;10.580;2023-04-06T03:25:48;-3.10;99.90
4279;DHT22;2153;47.744;10.580;2023-04-06T03:28:15;-3.10;99.90
4279;DHT22;2153;47.744;10.580;2023-04-06T03:30:42;-3.10;99.90
4279;DHT22;2153;47.744;10.580;2023-04-06T03:33:08;-3.20;99.90
4279;DHT22;2153;47.744;10.580;2023-04-06T03:35:35;-3.10;99.90
4279;DHT22;2153;47.744;10.580;2023-04-06T03:38:02;-3.10;99.90
4279;DHT22;2153;47.744;10.580;2023-04-06T03:40:30;-3.10;99.90
4279;DHT22;2153;47.744;10.580;2023-04-06T03:42:57;-3.20;99.90
4279;DHT22;2153;47.744;10.580;2023-04-06T03:45:24;-3.30;99.90
4279;DHT22;2153;47.744;10.580;2023-04-06T03:47:50;-3.30;99.90
4279;DHT22;2153;47.744;10.580;2023-04-06T03:50:17;-3.30;99.90
4279;DHT22;2153;47.744;10.580;2023-04-06T03:52:44;-3.30;99.90
4279;DHT22;2153;47.744;10.580;2023-04-06T03:55:10;-3.30;99.90
4279;DHT22;2153;47.744;10.580;2023-04-06T03:57:38;-3.20;99.90
4279;DHT22;2153;47.744;10.580;2023-04-06T04:00:07;-3.20;99.90
4279;DHT22;2153;47.744;10.580;2023-04-06T04:02:34;-3.20;99.90
4279;DHT22;2153;47.744;10.580;2023-04-06T04:05:01;-3.20;99.90
4279;DHT22;2153;47.744;10.580;2023-04-06T04:07:28;-3.40;99.90
4279;DHT22;2153;47.744;10.580;2023-04-06T04:09:54;-3.50;99.90
4279;DHT22;2153;47.744;10.580;2023-04-06T04:12:21;-3.50;99.90
4279;DHT22;2153;47.744;10.580;2023-04-06T04:14:49;-3.50;99.90
4279;DHT22;2153;47.744;10.580;2023-04-06T04:17:16;-3.50;99.90
4279;DHT22;2153;47.744;10.580;2023-04-06T04:19:43;-3.40;99.90
4279;DHT22;2153;47.744;10.580;2023-04-06T04:22:09;-3.30;99.90
4279;DHT22;2153;47.744;10.580;2023-04-06T04:24:36;-3.20;99.90
4279;DHT22;2153;47.744;10.580;2023-04-06T04:27:03;-3.00;99.90
4279;DHT22;2153;47.744;10.580;2023-04-06T04:29:30;-3.00;99.90
4279;DHT22;2153;47.744;10.580;2023-04-06T04:31:58;-2.80;99.90
4279;DHT22;2153;47.744;10.580;2023-04-06T04:34:25;-2.80;99.90
4279;DHT22;2153;47.744;10.580;2023-04-06T04:36:52;-2.80;99.90
4279;DHT22;2153;47.744;10.580;2023-04-06T04:39:18;-2.80;99.90
4279;DHT22;2153;47.744;10.580;2023-04-06T04:41:45;-2.70;99.90
4279;DHT22;2153;47.744;10.580;2023-04-06T04:44:12;-2.60;99.90
4279;DHT22;2153;47.744;10.580;2023-04-06T04:46:39;-2.50;99.90
4279;DHT22;2153;47.744;10.580;2023-04-06T04:49:08;-2.50;99.90
4279;DHT22;2153;47.744;10.580;2023-04-06T04:51:34;-2.40;99.90
4279;DHT22;2153;47.744;10.580;2023-04-06T04:54:01;-2.30;99.90
4279;DHT22;2153;47.744;10.580;2023-04-06T04:56:28;-2.30;99.90
4279;DHT22;2153;47.744;10.580;2023-04-06T04:58:55;-2.30;99.90
4279;DHT22;2153;47.744;10.580;2023-04-06T05:01:22;-2.20;99.90
4279;DHT22;2153;47.744;10.580;2023-04-06T05:03:48;-2.30;99.90
4279;DHT22;2153;47.744;10.580;2023-04-06T05:06:16;-2.30;99.90
4279;DHT22;2153;47.744;10.580;2023-04-06T05:08:44;-2.30;99.90
4279;DHT22;2153;47.744;10.580;2023-04-06T05:11:11;-2.30;99.90
4279;DHT22;2153;47.744;10.580;2023-04-06T05:13:37;-2.20;99.90
4279;DHT22;2153;47.744;10.580;2023-04-06T05:16:05;-2.20;99.90
4279;DHT22;2153;47.744;10.580;2023-04-06T05:18:32;-2.20;99.90
4279;DHT22;2153;47.744;10.580;2023-04-06T05:20:59;-2.30;99.90
4279;DHT22;2153;47.744;10.580;2023-04-06T05:23:27;-2.30;99.90
4279;DHT22;2153;47.744;10.580;2023-04-06T05:25:54;-2.30;99.90
4279;DHT22;2153;47.744;10.580;2023-04-06T05:28:20;-2.20;99.90
4279;DHT22;2153;47.744;10.580;2023-04-06T05:30:47;-2.10;99.90
4279;DHT22;2153;47.744;10.580;2023-04-06T05:33:14;-2.10;99.90
4279;DHT22;2153;47.744;10.580;2023-04-06T05:35:41;-2.10;99.90
4279;DHT22;2153;47.744;10.580;2023-04-06T05:38:08;-2.00;99.90
4279;DHT22;2153;47.744;10.580;2023-04-06T05:40:37;-1.90;99.90
4279;DHT22;2153;47.744;10.580;2023-04-06T05:43:06;-1.80;99.90
4279;DHT22;2153;47.744;10.580;2023-04-06T05:45:33;-1.70;99.90
4279;DHT22;2153;47.744;10.580;2023-04-06T05:48:00;-1.70;99.90
4279;DHT22;2153;47.744;10.580;2023-04-06T05:50:27;-1.70;99.90
4279;DHT22;2153;47.744;10.580;2023-04-06T05:52:54;-1.80;99.90
4279;DHT22;2153;47.744;10.580;2023-04-06T05:55:20;-1.60;99.90
4279;DHT22;2153;47.744;10.580;2023-04-06T05:57:48;-1.60;99.90
4279;DHT22;2153;47.744;10.580;2023-04-06T06:00:15;-1.50;99.90
4279;DHT22;2153;47.744;10.580;2023-04-06T06:02:42;-1.40;99.90
4279;DHT22;2153;47.744;10.580;2023-04-06T06:05:09;-1.30;99.90
4279;DHT22;2153;47.744;10.580;2023-04-06T06:07:36;-1.20;99.90
4279;DHT22;2153;47.744;10.580;2023-04-06T06:10:03;-1.10;99.90
4279;DHT22;2153;47.744;10.580;2023-04-06T06:12:30;-1.10;99.90
4279;DHT22;2153;47.744;10.580;2023-04-06T06:14:58;-1.00;99.90
4279;DHT22;2153;47.744;10.580;2023-04-06T06:17:25;-0.90;99.90
4279;DHT22;2153;47.744;10.580;2023-04-06T06:19:52;-1.00;99.90
4279;DHT22;2153;47.744;10.580;2023-04-06T06:22:19;-0.90;99.90
4279;DHT22;2153;47.744;10.580;2023-04-06T06:24:46;-0.90;99.90
4279;DHT22;2153;47.744;10.580;2023-04-06T06:27:12;-0.90;99.90
4279;DHT22;2153;47.744;10.580;2023-04-06T06:29:39;-0.80;99.90
4279;DHT22;2153;47.744;10.580;2023-04-06T06:32:07;-0.60;99.90
4279;DHT22;2153;47.744;10.580;2023-04-06T06:34:35;-0.40;99.90
4279;DHT22;2153;47.744;10.580;2023-04-06T06:37:01;-0.20;99.90
4279;DHT22;2153;47.744;10.580;2023-04-06T06:39:28;0.10;99.90
4279;DHT22;2153;47.744;10.580;2023-04-06T06:41:55;0.30;99.90
4279;DHT22;2153;47.744;10.580;2023-04-06T06:44:22;0.50;99.90
4279;DHT22;2153;47.744;10.580;2023-04-06T06:46:48;0.70;99.90
4279;DHT22;2153;47.744;10.580;2023-04-06T06:49:16;1.00;99.90
4279;DHT22;2153;47.744;10.580;2023-04-06T06:51:44;1.80;99.90
4279;DHT22;2153;47.744;10.580;2023-04-06T06:54:11;2.90;99.90
4279;DHT22;2153;47.744;10.580;2023-04-06T06:56:38;3.00;99.90
4279;DHT22;2153;47.744;10.580;2023-04-06T06:59:05;3.80;99.90
4279;DHT22;2153;47.744;10.580;2023-04-06T07:01:33;4.10;99.90
4279;DHT22;2153;47.744;10.580;2023-04-06T07:04:00;3.80;99.90
4279;DHT22;2153;47.744;10.580;2023-04-06T07:06:28;4.10;99.90
4279;DHT22;2153;47.744;10.580;2023-04-06T07:08:54;4.30;99.90
4279;DHT22;2153;47.744;10.580;2023-04-06T07:11:21;4.50;99.90
4279;DHT22;2153;47.744;10.580;2023-04-06T07:13:48;4.80;99.90
4279;DHT22;2153;47.744;10.580;2023-04-06T07:16:15;4.90;99.90
4279;DHT22;2153;47.744;10.580;2023-04-06T07:18:42;5.10;99.90
4279;DHT22;2153;47.744;10.580;2023-04-06T07:21:08;5.40;99.90
4279;DHT22;2153;47.744;10.580;2023-04-06T07:23:36;5.60;99.90
4279;DHT22;2153;47.744;10.580;2023-04-06T07:26:03;6.00;99.90
4279;DHT22;2153;47.744;10.580;2023-04-06T07:28:30;6.10;99.90
4279;DHT22;2153;47.744;10.580;2023-04-06T07:30:57;6.80;99.90
4279;DHT22;2153;47.744;10.580;2023-04-06T07:33:24;6.60;99.90
4279;DHT22;2153;47.744;10.580;2023-04-06T07:35:54;6.60;99.90
4279;DHT22;2153;47.744;10.580;2023-04-06T07:38:21;6.30;99.90
4279;DHT22;2153;47.744;10.580;2023-04-06T07:40:49;6.80;99.90
4279;DHT22;2153;47.744;10.580;2023-04-06T07:43:16;8.10;99.90
4279;DHT22;2153;47.744;10.580;2023-04-06T07:45:43;8.80;99.90
4279;DHT22;2153;47.744;10.580;2023-04-06T07:48:09;9.30;66.10
4279;DHT22;2153;47.744;10.580;2023-04-06T07:50:36;10.00;75.40
4279;DHT22;2153;47.744;10.580;2023-04-06T07:53:03;10.10;17.00
4279;DHT22;2153;47.744;10.580;2023-04-06T07:55:30;9.40;11.00
4279;DHT22;2153;47.744;10.580;2023-04-06T07:57:58;10.20;1.00
4279;DHT22;2153;47.744;10.580;2023-04-06T08:00:24;10.40;1.00
4279;DHT22;2153;47.744;10.580;2023-04-06T08:02:51;10.60;1.00
4279;DHT22;2153;47.744;10.580;2023-04-06T08:05:18;10.90;1.00
4279;DHT22;2153;47.744;10.580;2023-04-06T08:07:44;11.00;1.00
4279;DHT22;2153;47.744;10.580;2023-04-06T08:10:11;11.10;1.00
4279;DHT22;2153;47.744;10.580;2023-04-06T08:12:38;10.90;1.00
4279;DHT22;2153;47.744;10.580;2023-04-06T08:15:07;10.70;1.00
4279;DHT22;2153;47.744;10.580;2023-04-06T08:17:33;11.50;1.00
4279;DHT22;2153;47.744;10.580;2023-04-06T08:20:00;11.30;1.00
4279;DHT22;2153;47.744;10.580;2023-04-06T08:22:28;11.70;1.00
4279;DHT22;2153;47.744;10.580;2023-04-06T08:24:55;11.90;1.00
4279;DHT22;2153;47.744;10.580;2023-04-06T08:27:22;12.80;1.00
4279;DHT22;2153;47.744;10.580;2023-04-06T08:29:49;12.20;1.00
4279;DHT22;2153;47.744;10.580;2023-04-06T08:32:18;11.60;1.00
4279;DHT22;2153;47.744;10.580;2023-04-06T08:34:44;10.70;1.00
4279;DHT22;2153;47.744;10.580;2023-04-06T08:37:11;10.30;1.00
4279;DHT22;2153;47.744;10.580;2023-04-06T08:39:38;9.50;1.00
4279;DHT22;2153;47.744;10.580;2023-04-06T08:42:11;9.20;1.00
4279;DHT22;2153;47.744;10.580;2023-04-06T08:44:40;8.70;1.00
4279;DHT22;2153;47.744;10.580;2023-04-06T08:47:07;8.60;1.00
4279;DHT22;2153;47.744;10.580;2023-04-06T08:49:37;8.40;1.00
4279;DHT22;2153;47.744;10.580;2023-04-06T08:52:06;8.90;1.00
4279;DHT22;2153;47.744;10.580;2023-04-06T08:54:33;10.40;1.00
4279;DHT22;2153;47.744;10.580;2023-04-06T08:57:01;10.50;1.00
4279;DHT22;2153;47.744;10.580;2023-04-06T08:59:28;10.10;1.00
4279;DHT22;2153;47.744;10.580;2023-04-06T09:01:55;9.90;1.00
4279;DHT22;2153;47.744;10.580;2023-04-06T09:04:22;9.40;1.00
4279;DHT22;2153;47.744;10.580;2023-04-06T09:06:50;8.90;1.00
4279;DHT22;2153;47.744;10.580;2023-04-06T09:09:17;8.70;1.00
4279;DHT22;2153;47.744;10.580;2023-04-06T09:11:47;8.60;1.00
4279;DHT22;2153;47.744;10.580;2023-04-06T09:14:15;9.00;1.00
4279;DHT22;2153;47.744;10.580;2023-04-06T09:16:43;9.90;1.00
4279;DHT22;2153;47.744;10.580;2023-04-06T09:19:11;10.60;1.00
4279;DHT22;2153;47.744;10.580;2023-04-06T09:21:38;10.70;1.00
4279;DHT22;2153;47.744;10.580;2023-04-06T09:24:08;10.90;1.00
4279;DHT22;2153;47.744;10.580;2023-04-06T09:26:45;10.50;1.00
4279;DHT22;2153;47.744;10.580;2023-04-06T09:29:22;9.90;1.00
4279;DHT22;2153;47.744;10.580;2023-04-06T09:31:49;9.70;1.00
4279;DHT22;2153;47.744;10.580;2023-04-06T09:34:21;9.60;1.00
4279;DHT22;2153;47.744;10.580;2023-04-06T09:36:48;10.10;1.00
4279;DHT22;2153;47.744;10.580;2023-04-06T09:39:20;9.70;1.00
4279;DHT22;2153;47.744;10.580;2023-04-06T09:41:50;9.30;1.00
4279;DHT22;2153;47.744;10.580;2023-04-06T09:44:17;9.10;1.00
4279;DHT22;2153;47.744;10.580;2023-04-06T09:46:45;9.00;1.00
4279;DHT22;2153;47.744;10.580;2023-04-06T09:49:13;9.40;1.00
4279;DHT22;2153;47.744;10.580;2023-04-06T09:51:41;10.30;1.00
4279;DHT22;2153;47.744;10.580;2023-04-06T09:54:08;10.60;1.00
4279;DHT22;2153;47.744;10.580;2023-04-06T09:56:43;10.20;1.00
4279;DHT22;2153;47.744;10.580;2023-04-06T09:59:14;9.60;1.00
4279;DHT22;2153;47.744;10.580;2023-04-06T10:01:46;9.30;1.00
4279;DHT22;2153;47.744;10.580;2023-04-06T10:04:24;9.20;1.00
4279;DHT22;2153;47.744;10.580;2023-04-06T10:06:54;9.70;1.00
4279;DHT22;2153;47.744;10.580;2023-04-06T10:09:25;10.50;1.00
4279;DHT22;2153;47.744;10.580;2023-04-06T10:11:56;11.10;1.00
4279;DHT22;2153;47.744;10.580;2023-04-06T10:14:24;11.60;1.00
4279;DHT22;2153;47.744;10.580;2023-04-06T10:16:51;10.90;1.00
4279;DHT22;2153;47.744;10.580;2023-04-06T10:19:22;10.30;1.00
4279;DHT22;2153;47.744;10.580;2023-04-06T10:21:54;10.40;1.00
4279;DHT22;2153;47.744;10.580;2023-04-06T10:24:22;11.30;1.00
4279;DHT22;2153;47.744;10.580;2023-04-06T10:26:58;12.60;1.00
4279;DHT22;2153;47.744;10.580;2023-04-06T10:29:25;13.10;1.00
4279;DHT22;2153;47.744;10.580;2023-04-06T10:31:52;13.00;1.00
4279;DHT22;2153;47.744;10.580;2023-04-06T10:34:20;13.70;1.00
4279;DHT22;2153;47.744;10.580;2023-04-06T10:36:47;14.10;1.00
4279;DHT22;2153;47.744;10.580;2023-04-06T10:39:14;14.20;1.00
4279;DHT22;2153;47.744;10.580;2023-04-06T10:41:42;14.20;1.00
4279;DHT22;2153;47.744;10.580;2023-04-06T10:44:20;13.50;1.00
4279;DHT22;2153;47.744;10.580;2023-04-06T10:46:52;12.20;1.00
4279;DHT22;2153;47.744;10.580;2023-04-06T10:49:20;11.50;1.00
4279;DHT22;2153;47.744;10.580;2023-04-06T10:51:51;10.70;1.00
4279;DHT22;2153;47.744;10.580;2023-04-06T10:54:19;10.60;1.00
4279;DHT22;2153;47.744;10.580;2023-04-06T10:56:47;11.80;1.00
4279;DHT22;2153;47.744;10.580;2023-04-06T10:59:20;12.40;1.00
4279;DHT22;2153;47.744;10.580;2023-04-06T11:01:47;12.80;1.00
4279;DHT22;2153;47.744;10.580;2023-04-06T11:04:16;12.80;1.00
4279;DHT22;2153;47.744;10.580;2023-04-06T11:06:46;12.50;1.00
4279;DHT22;2153;47.744;10.580;2023-04-06T11:09:23;12.10;1.00
4279;DHT22;2153;47.744;10.580;2023-04-06T11:11:50;12.60;1.00
4279;DHT22;2153;47.744;10.580;2023-04-06T11:14:17;13.50;1.00
4279;DHT22;2153;47.744;10.580;2023-04-06T11:16:48;14.00;1.00
4279;DHT22;2153;47.744;10.580;2023-04-06T11:19:15;14.00;1.00
4279;DHT22;2153;47.744;10.580;2023-04-06T11:21:43;13.00;1.00
4279;DHT22;2153;47.744;10.580;2023-04-06T11:24:14;12.40;1.00
4279;DHT22;2153;47.744;10.580;2023-04-06T11:26:43;11.60;1.00
4279;DHT22;2153;47.744;10.580;2023-04-06T11:29:10;11.40;1.00
4279;DHT22;2153;47.744;10.580;2023-04-06T11:31:39;11.10;1.00
4279;DHT22;2153;47.744;10.580;2023-04-06T11:34:12;11.60;1.00
4279;DHT22;2153;47.744;10.580;2023-04-06T11:36:42;11.60;1.00
4279;DHT22;2153;47.744;10.580;2023-04-06T11:39:10;11.20;1.00
4279;DHT22;2153;47.744;10.580;2023-04-06T11:41:37;11.80;1.00
4279;DHT22;2153;47.744;10.580;2023-04-06T11:44:05;12.60;1.00
4279;DHT22;2153;47.744;10.580;2023-04-06T11:46:32;13.00;1.00
4279;DHT22;2153;47.744;10.580;2023-04-06T11:48:59;13.30;1.00
4279;DHT22;2153;47.744;10.580;2023-04-06T11:51:27;13.30;1.00
4279;DHT22;2153;47.744;10.580;2023-04-06T11:53:54;13.30;1.00
4279;DHT22;2153;47.744;10.580;2023-04-06T11:56:27;13.20;1.00
4279;DHT22;2153;47.744;10.580;2023-04-06T11:58:55;13.30;1.00
4279;DHT22;2153;47.744;10.580;2023-04-06T12:01:23;12.80;1.00
4279;DHT22;2153;47.744;10.580;2023-04-06T12:03:50;13.40;1.00
4279;DHT22;2153;47.744;10.580;2023-04-06T12:06:17;13.10;1.00
4279;DHT22;2153;47.744;10.580;2023-04-06T12:08:46;12.30;1.00
4279;DHT22;2153;47.744;10.580;2023-04-06T12:11:13;12.10;1.00
4279;DHT22;2153;47.744;10.580;2023-04-06T12:13:39;12.30;1.00
4279;DHT22;2153;47.744;10.580;2023-04-06T12:16:06;13.10;1.00
4279;DHT22;2153;47.744;10.580;2023-04-06T12:18:33;13.50;1.00
4279;DHT22;2153;47.744;10.580;2023-04-06T12:21:00;13.90;1.00
4279;DHT22;2153;47.744;10.580;2023-04-06T12:23:26;14.30;1.00
4279;DHT22;2153;47.744;10.580;2023-04-06T12:25:54;13.80;1.00
4279;DHT22;2153;47.744;10.580;2023-04-06T12:28:21;13.00;1.00
4279;DHT22;2153;47.744;10.580;2023-04-06T12:30:52;12.80;1.00
4279;DHT22;2153;47.744;10.580;2023-04-06T12:33:19;13.10;1.00
4279;DHT22;2153;47.744;10.580;2023-04-06T12:35:46;12.70;1.00
4279;DHT22;2153;47.744;10.580;2023-04-06T12:38:12;12.70;1.00
4279;DHT22;2153;47.744;10.580;2023-04-06T12:40:39;12.60;1.00
4279;DHT22;2153;47.744;10.580;2023-04-06T12:43:07;12.70;1.00
4279;DHT22;2153;47.744;10.580;2023-04-06T12:45:34;12.80;1.00
4279;DHT22;2153;47.744;10.580;2023-04-06T12:48:01;12.90;1.00
4279;DHT22;2153;47.744;10.580;2023-04-06T12:50:28;12.90;1.00
4279;DHT22;2153;47.744;10.580;2023-04-06T12:52:55;13.30;1.00
4279;DHT22;2153;47.744;10.580;2023-04-06T12:55:21;13.10;1.00
4279;DHT22;2153;47.744;10.580;2023-04-06T12:57:48;12.60;1.00
4279;DHT22;2153;47.744;10.580;2023-04-06T13:00:17;12.60;1.00
4279;DHT22;2153;47.744;10.580;2023-04-06T13:02:44;12.50;1.00
4279;DHT22;2153;47.744;10.580;2023-04-06T13:05:13;12.70;1.00
4279;DHT22;2153;47.744;10.580;2023-04-06T13:07:40;13.30;1.00
4279;DHT22;2153;47.744;10.580;2023-04-06T13:10:07;13.60;1.00
4279;DHT22;2153;47.744;10.580;2023-04-06T13:12:34;13.70;1.00
4279;DHT22;2153;47.744;10.580;2023-04-06T13:15:01;13.70;1.00
4279;DHT22;2153;47.744;10.580;2023-04-06T13:17:30;14.00;1.00
4279;DHT22;2153;47.744;10.580;2023-04-06T13:19:56;14.30;1.00
4279;DHT22;2153;47.744;10.580;2023-04-06T13:22:23;14.30;1.00
4279;DHT22;2153;47.744;10.580;2023-04-06T13:24:50;14.60;1.00
4279;DHT22;2153;47.744;10.580;2023-04-06T13:27:17;14.30;1.00
4279;DHT22;2153;47.744;10.580;2023-04-06T13:29:43;14.40;1.00
4279;DHT22;2153;47.744;10.580;2023-04-06T13:32:10;14.30;1.00
4279;DHT22;2153;47.744;10.580;2023-04-06T13:34:38;14.40;1.00
4279;DHT22;2153;47.744;10.580;2023-04-06T13:37:06;14.40;1.00
4279;DHT22;2153;47.744;10.580;2023-04-06T13:39:32;14.20;1.00
4279;DHT22;2153;47.744;10.580;2023-04-06T13:41:59;14.00;1.00
4279;DHT22;2153;47.744;10.580;2023-04-06T13:44:28;14.10;1.00
4279;DHT22;2153;47.744;10.580;2023-04-06T13:46:55;14.40;1.00
4279;DHT22;2153;47.744;10.580;2023-04-06T13:49:22;14.40;1.00
4279;DHT22;2153;47.744;10.580;2023-04-06T13:51:50;14.50;1.00
4279;DHT22;2153;47.744;10.580;2023-04-06T13:54:17;14.70;1.00
4279;DHT22;2153;47.744;10.580;2023-04-06T13:56:43;14.70;1.00
4279;DHT22;2153;47.744;10.580;2023-04-06T13:59:10;14.60;1.00
4279;DHT22;2153;47.744;10.580;2023-04-06T14:01:37;14.20;1.00
4279;DHT22;2153;47.744;10.580;2023-04-06T14:04:04;13.90;1.00
4279;DHT22;2153;47.744;10.580;2023-04-06T14:06:30;13.90;1.00
4279;DHT22;2153;47.744;10.580;2023-04-06T14:08:58;13.60;1.00
4279;DHT22;2153;47.744;10.580;2023-04-06T14:11:25;13.60;1.00
4279;DHT22;2153;47.744;10.580;2023-04-06T14:13:52;13.40;1.00
4279;DHT22;2153;47.744;10.580;2023-04-06T14:16:19;13.30;1.00
4279;DHT22;2153;47.744;10.580;2023-04-06T14:18:46;13.40;1.00
4279;DHT22;2153;47.744;10.580;2023-04-06T14:21:13;13.50;1.00
4279;DHT22;2153;47.744;10.580;2023-04-06T14:23:40;13.90;1.00
4279;DHT22;2153;47.744;10.580;2023-04-06T14:26:08;14.00;1.00
4279;DHT22;2153;47.744;10.580;2023-04-06T14:28:35;13.80;1.00
4279;DHT22;2153;47.744;10.580;2023-04-06T14:31:09;13.70;1.00
4279;DHT22;2153;47.744;10.580;2023-04-06T14:33:37;13.50;1.00
4279;DHT22;2153;47.744;10.580;2023-04-06T14:36:04;13.40;1.00
4279;DHT22;2153;47.744;10.580;2023-04-06T14:38:31;13.10;1.00
4279;DHT22;2153;47.744;10.580;2023-04-06T14:40:58;13.10;1.00
4279;DHT22;2153;47.744;10.580;2023-04-06T14:43:26;12.90;1.00
4279;DHT22;2153;47.744;10.580;2023-04-06T14:45:53;12.90;1.00
4279;DHT22;2153;47.744;10.580;2023-04-06T14:48:20;12.60;1.00
4279;DHT22;2153;47.744;10.580;2023-04-06T14:50:52;12.20;1.00
4279;DHT22;2153;47.744;10.580;2023-04-06T14:53:20;12.10;1.00
4279;DHT22;2153;47.744;10.580;2023-04-06T14:55:47;12.10;1.00
4279;DHT22;2153;47.744;10.580;2023-04-06T14:58:15;12.10;1.00
4279;DHT22;2153;47.744;10.580;2023-04-06T15:00:43;12.10;1.00
4279;DHT22;2153;47.744;10.580;2023-04-06T15:03:10;12.00;1.00
4279;DHT22;2153;47.744;10.580;2023-04-06T15:05:37;11.80;1.00
4279;DHT22;2153;47.744;10.580;2023-04-06T15:08:04;11.80;1.00
4279;DHT22;2153;47.744;10.580;2023-04-06T15:10:31;11.70;1.00
4279;DHT22;2153;47.744;10.580;2023-04-06T15:12:58;11.50;1.00
4279;DHT22;2153;47.744;10.580;2023-04-06T15:15:25;11.50;1.00
4279;DHT22;2153;47.744;10.580;2023-04-06T15:17:53;11.60;1.00
4279;DHT22;2153;47.744;10.580;2023-04-06T15:20:19;11.80;1.00
4279;DHT22;2153;47.744;10.580;2023-04-06T15:22:46;11.70;1.00
4279;DHT22;2153;47.744;10.580;2023-04-06T15:25:13;11.80;1.00
4279;DHT22;2153;47.744;10.580;2023-04-06T15:27:40;11.80;1.00
4279;DHT22;2153;47.744;10.580;2023-04-06T15:30:07;11.80;1.00
4279;DHT22;2153;47.744;10.580;2023-04-06T15:32:34;11.70;1.00
4279;DHT22;2153;47.744;10.580;2023-04-06T15:35:08;11.90;1.00
4279;DHT22;2153;47.744;10.580;2023-04-06T15:37:36;11.90;1.00
4279;DHT22;2153;47.744;10.580;2023-04-06T15:40:03;11.80;1.00
4279;DHT22;2153;47.744;10.580;2023-04-06T15:42:30;11.60;1.00
4279;DHT22;2153;47.744;10.580;2023-04-06T15:44:57;11.40;1.00
4279;DHT22;2153;47.744;10.580;2023-04-06T15:47:24;11.30;1.00
4279;DHT22;2153;47.744;10.580;2023-04-06T15:49:50;11.30;1.00
4279;DHT22;2153;47.744;10.580;2023-04-06T15:52:19;11.10;1.00
4279;DHT22;2153;47.744;10.580;2023-04-06T15:54:47;11.00;1.00
4279;DHT22;2153;47.744;10.580;2023-04-06T15:57:13;11.10;1.00
4279;DHT22;2153;47.744;10.580;2023-04-06T15:59:40;11.00;1.00